Gays Mills, WI

9:36 AM CDT on May 24, 2015 (GMT -0500)
Boscobel | | Change Station
CLOSE
Current Station
Airport
Location: Boscobel,
Elevation: 673 ft
Nearby Weather Stations

Elev 673 ft 43.16 °N, 90.68 °W | Updated 43 minutes ago

Rain
Rain
61 °F
Feels Like 61 °F
N
5
Wind Variable Wind from Variable

Today
High -- | Low -- °F
--% Chance of Precip.
Yesterday
High -- | Low -- °F
Precip. -- in
5:31 AM 8:29 PM
Waxing Crescent, 39% visible
Pressure 30.14 in
Visibility 6.0 miles
Clouds Few 6000 ft
Overcast 8500 ft
Dew Point 55 °F
Humidity 81%
Rainfall 0.02 in
Snow Depth Not available.
UV 1 out of 12
Pollen 6.30 out of 12
Air Quality Not available.
Flu Activity Sporadic
METAR KOVS 241353Z AUTO VRB04KT 6SM -RA FEW060 OVC085 16/13 A3014 RMK AO2 SLP206 P0002 T01610128

More Conditions Fewer Conditions

Pressure 30.14 in
Visibility 6.0 miles
Clouds Few 6000 ft
Overcast 8500 ft
Dew Point 55 °F
Humidity 81%
Rainfall 0.02 in
Snow Depth Not available.
UV 1 out of 12
Pollen 6.30 out of 12
Air Quality Not available.
Flu Activity Sporadic
METAR KOVS 241353Z AUTO VRB04KT 6SM -RA FEW060 OVC085 16/13 A3014 RMK AO2 SLP206 P0002 T01610128

More Conditions Fewer Conditions

10-Day Weather Forecast

Almanac

Astronomy

May. 24, 2015 Rise Set
Actual Time
Civil Twilight
Nautical Twilight
Astronomical Twilight
Moon
Length of Visible Light
Length of Day
Tomorrow will be .
, % of the Moon is Illuminated

Today's Extremes

State Highs State Lows

Community

WunderPhotos

Upload Photos

1,823,747 photos uploaded!

WunderBlogs® & News

Nearby

Air Quality

  Air Quality AQ Index Pollutant
Not available.

Snow Depth

Station Depth Elevation

Earthquake Activity

City Distance Mag. Time & Date
Minimum magnitude displayed is 2.5.

Coastal Water Temperatures

Place Temperature

Stations

Nearby Weather Stations

Station Location Temp. Windchill Dew Point Humidity Wind Precip. Elev Updated Type